Kamikawa Maru — JG5687 — position and weather

sailwx.info

Track history (hours):
 
Tides and Currents Weather Stations Pressure Air Temp Water Temp Dewpoint Dewpoint Depression Visibility Wind Speed Wind Dir Waves Ship Positions

Kamikawa Maru

Last reported at 2015-May-24 12:33 UTC. Time now 2015-May-25 15:28 UTC.
Position N 34°30' E 138°32'.

Length 162 m; draft 6.8 m.

Type: Cargo ship. MMSI: 431101012.

Date/timePositionNaut miles runAvg speedWind from/ knotsBaromVisibWave heightAir tempDewpointWater temp
2015-May-24 12:33N 34°30' E 138°32'4719.0
2015-May-24 10:05N 34°52' E 139°23'1119.7
2015-May-24 09:33N 34°59' E 139°33'1818.1
2015-May-24 08:33N 35°13' E 139°46'1212.1
2015-May-24 07:33N 35°25' E 139°44'1212.4
2015-May-24 06:33N 35°37' E 139°46'1 0.5
2015-May-24 05:32N 35°38' E 139°46'0 0.0
2015-May-24 04:32N 35°38' E 139°46'0 0.0
2015-May-24 03:29N 35°38' E 139°46'0 0.0
2015-May-24 02:29N 35°38' E 139°46'0 0.0
2015-May-24 01:29N 35°38' E 139°46'0 0.0
2015-May-24 00:20N 35°38' E 139°46'0 0.0
2015-May-23 23:33N 35°38' E 139°46'1110.5
2015-May-23 22:33N 35°28' E 139°51'1212.3
2015-May-23 21:33N 35°17' E 139°46'1413.6
2015-May-23 20:33N 35°03' E 139°43'1512.7
2015-May-23 19:21N 34°52' E 139°56'1417.1
2015-May-23 18:33N 34°59' E 140°10'2017.0
2015-May-23 17:22N 35°11' E 140°30'1516.7
2015-May-23 16:28N 35°23' E 140°40'1617.7
2015-May-23 15:33N 35°37' E 140°51'1817.7
2015-May-23 14:33N 35°53' E 141°00'1818.0
2015-May-23 13:33N 36°11' E 141°02'1917.8
2015-May-23 12:28N 36°30' E 141°06'1618.0
2015-May-23 11:33N 36°46' E 141°10'  
2015-May-19 20:13N 36°46' E 141°09'1618.7
2015-May-19 19:21N 36°31' E 141°06'1519.0
2015-May-19 18:33N 36°15' E 141°03'5718.8
2015-May-19 15:32N 35°22' E 140°40'2420.4
2015-May-19 14:23N 35°04' E 140°21'2320.1
2015-May-19 13:16N 34°52' E 139°58'1216.9
2015-May-19 12:32N 34°56' E 139°43'1717.2
2015-May-19 11:33N 35°12' E 139°46'1212.3
2015-May-19 10:33N 35°24' E 139°43'1312.7
2015-May-19 09:33N 35°37' E 139°46'1 1.1
2015-May-19 08:31N 35°38' E 139°46'0 0.0
2015-May-19 07:31N 35°38' E 139°46'0 0.0
2015-May-19 06:31N 35°38' E 139°46'0 0.0
2015-May-19 05:22N 35°38' E 139°46'0 0.0
2015-May-19 04:16N 35°38' E 139°46'0 0.0
2015-May-19 03:28N 35°38' E 139°46'0 0.0
2015-May-19 02:28N 35°38' E 139°46'0 0.0
2015-May-19 01:22N 35°38' E 139°46'0 0.1
2015-May-19 00:24N 35°38' E 139°46'0 0.1
2015-May-18 23:33N 35°38' E 139°46'8 7.3
2015-May-18 22:25N 35°32' E 139°53'0 0.1
2015-May-18 21:31N 35°32' E 139°53'0 0.0
2015-May-18 20:31N 35°32' E 139°53'0 0.0
2015-May-18 19:31N 35°32' E 139°53'0 0.1
2015-May-18 18:28N 35°32' E 139°53'1112.0
2015-May-18 17:33N 35°23' E 139°46'1212.1
2015-May-18 16:33N 35°11' E 139°47'1818.3
2015-May-18 15:33N 34°57' E 139°33'5818.9
2015-May-18 12:30N 34°28' E 138°32'2 0.1
2015-May-17 12:31N 34°30' E 138°33'4418.5
2015-May-17 10:10N 34°50' E 139°20'1219.6
2015-May-17 09:33N 34°58' E 139°31'1818.5
2015-May-17 08:33N 35°12' E 139°46'1313.1
2015-May-17 07:33N 35°25' E 139°44'1312.9
2015-May-17 06:33N 35°38' E 139°46'0 0.1
2015-May-17 05:13N 35°38' E 139°46'0 0.1
2015-May-17 04:28N 35°38' E 139°46'0 0.0
2015-May-17 03:10N 35°38' E 139°46'0 0.0
2015-May-17 02:25N 35°38' E 139°46'0 0.1
2015-May-17 01:31N 35°38' E 139°46'0 0.0
2015-May-17 00:28N 35°38' E 139°46'0 0.3
2015-May-16 23:34N 35°38' E 139°46'1212.2
2015-May-16 22:33N 35°26' E 139°48'1110.9
2015-May-16 21:34N 35°15' E 139°47'1514.8
2015-May-16 20:33N 35°00' E 139°43'1414.3
2015-May-16 19:33N 34°52' E 139°57'1818.0
2015-May-16 18:33N 35°02' E 140°16'1817.7
2015-May-16 17:33N 35°13' E 140°33'1716.8
2015-May-16 16:33N 35°26' E 140°46'1717.3
2015-May-16 15:33N 35°41' E 140°56'1817.7
2015-May-16 14:33N 35°59' E 141°00'2217.5
2015-May-16 13:16N 36°21' E 141°04'1317.6
2015-May-16 12:33N 36°33' E 141°07'  
Track history (hours):
 
Tides and Currents Weather Stations Pressure Air Temp Water Temp Dewpoint Dewpoint Depression Visibility Wind Speed Wind Dir Waves Ship Positions

Kamikawa Maru

Last reported at 2015-May-24 12:33 UTC. Time now 2015-May-25 15:28 UTC.
Position N 34°30' E 138°32'.

Length 162 m; draft 6.8 m.

Type: Cargo ship. MMSI: 431101012.

Date/timePositionNaut miles runAvg speedWind from/ knotsBaromVisibWave heightAir tempDewpointWater temp
2015-May-24 12:33N 34°30' E 138°32'4719.0
2015-May-24 10:05N 34°52' E 139°23'1119.7
2015-May-24 09:33N 34°59' E 139°33'1818.1
2015-May-24 08:33N 35°13' E 139°46'1212.1
2015-May-24 07:33N 35°25' E 139°44'1212.4
2015-May-24 06:33N 35°37' E 139°46'1 0.5
2015-May-24 05:32N 35°38' E 139°46'0 0.0
2015-May-24 04:32N 35°38' E 139°46'0 0.0
2015-May-24 03:29N 35°38' E 139°46'0 0.0
2015-May-24 02:29N 35°38' E 139°46'0 0.0
2015-May-24 01:29N 35°38' E 139°46'0 0.0
2015-May-24 00:20N 35°38' E 139°46'0 0.0
2015-May-23 23:33N 35°38' E 139°46'1110.5
2015-May-23 22:33N 35°28' E 139°51'1212.3
2015-May-23 21:33N 35°17' E 139°46'1413.6
2015-May-23 20:33N 35°03' E 139°43'1512.7
2015-May-23 19:21N 34°52' E 139°56'1417.1
2015-May-23 18:33N 34°59' E 140°10'2017.0
2015-May-23 17:22N 35°11' E 140°30'1516.7
2015-May-23 16:28N 35°23' E 140°40'1617.7
2015-May-23 15:33N 35°37' E 140°51'1817.7
2015-May-23 14:33N 35°53' E 141°00'1818.0
2015-May-23 13:33N 36°11' E 141°02'1917.8
2015-May-23 12:28N 36°30' E 141°06'1618.0
2015-May-23 11:33N 36°46' E 141°10'  
2015-May-19 20:13N 36°46' E 141°09'1618.7
2015-May-19 19:21N 36°31' E 141°06'1519.0
2015-May-19 18:33N 36°15' E 141°03'5718.8
2015-May-19 15:32N 35°22' E 140°40'2420.4
2015-May-19 14:23N 35°04' E 140°21'2320.1
2015-May-19 13:16N 34°52' E 139°58'1216.9
2015-May-19 12:32N 34°56' E 139°43'1717.2
2015-May-19 11:33N 35°12' E 139°46'1212.3
2015-May-19 10:33N 35°24' E 139°43'1312.7
2015-May-19 09:33N 35°37' E 139°46'1 1.1
2015-May-19 08:31N 35°38' E 139°46'0 0.0
2015-May-19 07:31N 35°38' E 139°46'0 0.0
2015-May-19 06:31N 35°38' E 139°46'0 0.0
2015-May-19 05:22N 35°38' E 139°46'0 0.0
2015-May-19 04:16N 35°38' E 139°46'0 0.0
2015-May-19 03:28N 35°38' E 139°46'0 0.0
2015-May-19 02:28N 35°38' E 139°46'0 0.0
2015-May-19 01:22N 35°38' E 139°46'0 0.1
2015-May-19 00:24N 35°38' E 139°46'0 0.1
2015-May-18 23:33N 35°38' E 139°46'8 7.3
2015-May-18 22:25N 35°32' E 139°53'0 0.1
2015-May-18 21:31N 35°32' E 139°53'0 0.0
2015-May-18 20:31N 35°32' E 139°53'0 0.0
2015-May-18 19:31N 35°32' E 139°53'0 0.1
2015-May-18 18:28N 35°32' E 139°53'1112.0
2015-May-18 17:33N 35°23' E 139°46'1212.1
2015-May-18 16:33N 35°11' E 139°47'1818.3
2015-May-18 15:33N 34°57' E 139°33'5818.9
2015-May-18 12:30N 34°28' E 138°32'2 0.1
2015-May-17 12:31N 34°30' E 138°33'4418.5
2015-May-17 10:10N 34°50' E 139°20'1219.6
2015-May-17 09:33N 34°58' E 139°31'1818.5
2015-May-17 08:33N 35°12' E 139°46'1313.1
2015-May-17 07:33N 35°25' E 139°44'1312.9
2015-May-17 06:33N 35°38' E 139°46'0 0.1
2015-May-17 05:13N 35°38' E 139°46'0 0.1
2015-May-17 04:28N 35°38' E 139°46'0 0.0
2015-May-17 03:10N 35°38' E 139°46'0 0.0
2015-May-17 02:25N 35°38' E 139°46'0 0.1
2015-May-17 01:31N 35°38' E 139°46'0 0.0
2015-May-17 00:28N 35°38' E 139°46'0 0.3
2015-May-16 23:34N 35°38' E 139°46'1212.2
2015-May-16 22:33N 35°26' E 139°48'1110.9
2015-May-16 21:34N 35°15' E 139°47'1514.8
2015-May-16 20:33N 35°00' E 139°43'1414.3
2015-May-16 19:33N 34°52' E 139°57'1818.0
2015-May-16 18:33N 35°02' E 140°16'1817.7
2015-May-16 17:33N 35°13' E 140°33'1716.8
2015-May-16 16:33N 35°26' E 140°46'1717.3
2015-May-16 15:33N 35°41' E 140°56'1817.7
2015-May-16 14:33N 35°59' E 141°00'2217.5
2015-May-16 13:16N 36°21' E 141°04'1317.6
2015-May-16 12:33N 36°33' E 141°07'  

Dump ship's entire track history